Time;durP1;ratioP1;P1;durP2;ratioP2;P2;SDS_P1;SDS_P2;PMS_P1;PMS_P2;Temp;Humidity;BMP_temperature;BMP_pressure;BME280_temperature;BME280_humidity;BME280_pressure;Samples;Min_cycle;Max_cycle;Signal;HPM_P1;HPM_P2
2022/02/25 00:01:27;;;;;;;6.38;2.50;;;3.80;99.90;;;;;;5020376;28;20184;-72
2022/02/25 00:03:54;;;;;;;9.63;2.92;;;3.80;99.90;;;;;;5039058;28;20298;-68
2022/02/25 00:06:21;;;;;;;12.02;2.90;;;3.80;99.90;;;;;;5032997;28;20188;-71
2022/02/25 00:08:48;;;;;;;14.90;3.60;;;3.80;99.90;;;;;;5037828;28;20192;-72
2022/02/25 00:11:15;;;;;;;5.35;3.00;;;3.90;99.90;;;;;;5040979;28;20259;-72
2022/02/25 00:13:42;;;;;;;8.73;3.03;;;3.80;99.90;;;;;;5037771;28;20212;-71
2022/02/25 00:16:08;;;;;;;6.90;2.90;;;3.90;99.90;;;;;;5041835;28;20199;-71
2022/02/25 00:18:37;;;;;;;7.65;2.72;;;3.90;99.90;;;;;;5035317;28;20342;-70
2022/02/25 00:21:04;;;;;;;5.28;2.97;;;3.80;99.90;;;;;;5029241;28;20219;-72
2022/02/25 00:23:31;;;;;;;8.20;2.65;;;3.80;99.90;;;;;;5037074;28;20252;-71
2022/02/25 00:25:58;;;;;;;8.57;4.60;;;3.80;99.90;;;;;;5037769;28;20211;-71
2022/02/25 00:28:25;;;;;;;9.68;3.28;;;3.80;99.90;;;;;;5038350;28;20189;-71
2022/02/25 00:30:52;;;;;;;5.63;2.20;;;3.80;99.90;;;;;;5042510;28;20203;-70
2022/02/25 00:33:18;;;;;;;4.93;2.50;;;3.80;99.90;;;;;;5035860;28;20264;-70
2022/02/25 00:35:47;;;;;;;7.97;3.35;;;3.80;99.90;;;;;;5040874;28;20351;-72
2022/02/25 00:38:14;;;;;;;7.43;2.65;;;3.80;99.90;;;;;;5037861;28;20224;-71
2022/02/25 00:40:41;;;;;;;7.38;2.90;;;3.80;99.90;;;;;;5040154;28;20255;-71
2022/02/25 00:43:08;;;;;;;5.38;2.60;;;3.70;99.90;;;;;;5035237;28;20211;-68
2022/02/25 00:45:35;;;;;;;5.40;2.55;;;3.80;99.90;;;;;;5039681;28;20192;-68
2022/02/25 00:48:02;;;;;;;8.27;4.45;;;3.80;99.90;;;;;;5037862;28;20203;-68
2022/02/25 00:50:28;;;;;;;6.20;2.65;;;3.80;99.90;;;;;;5037157;28;20195;-71
2022/02/25 00:52:57;;;;;;;4.88;2.53;;;3.80;99.90;;;;;;5035666;28;20275;-68
2022/02/25 00:55:24;;;;;;;5.97;2.60;;;3.80;99.90;;;;;;5041180;28;20216;-70
2022/02/25 00:57:52;;;;;;;6.70;3.45;;;3.80;99.90;;;;;;5034024;28;20260;-69
2022/02/25 01:00:20;;;;;;;7.93;4.88;;;3.80;99.90;;;;;;5033829;28;20206;-71
2022/02/25 01:02:47;;;;;;;3.70;1.75;;;3.80;99.90;;;;;;5045035;28;20299;-73
2022/02/25 01:05:14;;;;;;;10.40;2.90;;;3.80;99.90;;;;;;5033336;28;20236;-70
2022/02/25 01:07:43;;;;;;;15.93;4.00;;;3.80;99.90;;;;;;5025446;28;20251;-72
2022/02/25 01:10:13;;;;;;;11.95;2.85;;;3.80;99.90;;;;;;5033962;28;20224;-73
2022/02/25 01:12:41;;;;;;;6.75;2.53;;;3.80;99.90;;;;;;5039652;28;20296;-70
2022/02/25 01:15:10;;;;;;;5.43;3.08;;;3.80;99.90;;;;;;5047722;28;20258;-71
2022/02/25 01:17:38;;;;;;;4.00;2.50;;;3.70;99.90;;;;;;5038767;28;20422;-72
2022/02/25 01:20:07;;;;;;;9.60;2.88;;;3.70;99.90;;;;;;5037313;28;20256;-72
2022/02/25 01:22:34;;;;;;;3.78;2.63;;;3.70;99.90;;;;;;5041325;28;20468;-71
2022/02/25 01:25:01;;;;;;;4.00;2.58;;;3.80;99.90;;;;;;5038444;28;20233;-72
2022/02/25 01:27:31;;;;;;;4.05;2.60;;;3.70;99.90;;;;;;5036957;28;20408;-71
2022/02/25 01:29:58;;;;;;;5.55;3.00;;;3.70;99.90;;;;;;5034282;28;20965;-71
2022/02/25 01:32:25;;;;;;;7.68;2.88;;;3.70;99.90;;;;;;5041221;28;20211;-70
2022/02/25 01:34:52;;;;;;;6.95;2.45;;;3.60;99.90;;;;;;5039926;28;20208;-71
2022/02/25 01:37:19;;;;;;;11.13;3.08;;;3.60;99.90;;;;;;5044387;28;20192;-71
2022/02/25 01:39:46;;;;;;;7.97;2.28;;;3.70;99.90;;;;;;5039415;28;20197;-70
2022/02/25 01:42:13;;;;;;;9.57;2.50;;;3.70;99.90;;;;;;5036412;28;20246;-69
2022/02/25 01:44:42;;;;;;;6.00;4.13;;;3.60;99.90;;;;;;5041624;28;20260;-71
2022/02/25 01:47:11;;;;;;;3.00;2.20;;;3.60;99.90;;;;;;5044551;28;20195;-71
2022/02/25 01:49:38;;;;;;;6.53;2.58;;;3.60;99.90;;;;;;5029381;28;20211;-73
2022/02/25 01:52:08;;;;;;;6.65;2.83;;;3.60;99.90;;;;;;5043423;28;20227;-71
2022/02/25 01:54:35;;;;;;;15.25;4.25;;;3.70;99.90;;;;;;5044803;28;20185;-71
2022/02/25 01:57:03;;;;;;;11.60;3.60;;;3.80;99.90;;;;;;5041507;28;20184;-72
2022/02/25 01:59:32;;;;;;;6.78;2.40;;;3.90;99.90;;;;;;5034487;28;20224;-71
2022/02/25 02:02:00;;;;;;;7.90;3.50;;;4.00;99.90;;;;;;5040509;28;20212;-72
2022/02/25 02:04:28;;;;;;;9.00;2.80;;;3.90;99.90;;;;;;5042162;28;20238;-68
2022/02/25 02:06:56;;;;;;;4.93;2.53;;;3.90;99.90;;;;;;5039173;28;20261;-70
2022/02/25 02:09:22;;;;;;;2.83;2.25;;;3.90;99.90;;;;;;5047034;28;20184;-70
2022/02/25 02:11:51;;;;;;;7.78;2.60;;;3.90;99.90;;;;;;5036622;28;20269;-71
2022/02/25 02:14:20;;;;;;;5.18;2.65;;;3.90;99.90;;;;;;5040124;28;20401;-70
2022/02/25 02:16:49;;;;;;;7.55;2.42;;;4.00;99.90;;;;;;5033745;28;20275;-70
2022/02/25 02:19:18;;;;;;;5.95;2.20;;;4.00;99.90;;;;;;5035650;28;20191;-69
2022/02/25 02:21:47;;;;;;;5.93;2.30;;;4.00;99.90;;;;;;5037198;28;20216;-70
2022/02/25 02:24:17;;;;;;;6.03;2.75;;;4.00;99.90;;;;;;5035142;28;20471;-70
2022/02/25 02:26:45;;;;;;;12.48;2.88;;;3.90;99.90;;;;;;5039863;28;20260;-71
2022/02/25 02:29:13;;;;;;;10.60;3.47;;;3.90;99.90;;;;;;5046304;28;20420;-70
2022/02/25 02:31:40;;;;;;;7.15;2.55;;;3.90;99.90;;;;;;5036995;28;20251;-71
2022/02/25 02:34:09;;;;;;;6.55;2.38;;;3.90;99.90;;;;;;5039191;28;20211;-70
2022/02/25 02:36:36;;;;;;;3.75;2.20;;;3.90;99.90;;;;;;5042740;28;20193;-70
2022/02/25 02:39:03;;;;;;;13.02;3.38;;;3.90;99.90;;;;;;5024309;28;20188;-71
2022/02/25 02:41:32;;;;;;;6.30;1.92;;;3.90;99.90;;;;;;5040850;28;20200;-70
2022/02/25 02:43:58;;;;;;;16.67;3.13;;;3.90;99.90;;;;;;5045992;28;20262;-71
2022/02/25 02:46:25;;;;;;;7.97;2.92;;;3.90;99.90;;;;;;5034157;28;20223;-70
2022/02/25 02:48:52;;;;;;;6.15;2.67;;;3.90;99.90;;;;;;5036513;28;20250;-71
2022/02/25 02:51:19;;;;;;;4.95;1.98;;;3.80;99.90;;;;;;5039128;28;20216;-71
2022/02/25 02:53:46;;;;;;;12.45;2.42;;;3.80;99.90;;;;;;5040791;28;20263;-70
2022/02/25 02:56:13;;;;;;;13.07;2.05;;;3.80;99.90;;;;;;5038562;28;20230;-70
2022/02/25 02:58:41;;;;;;;2.88;1.83;;;3.80;99.90;;;;;;5039236;28;20224;-70
2022/02/25 03:01:08;;;;;;;12.07;3.63;;;3.80;99.90;;;;;;5047103;28;20318;-72
2022/02/25 03:03:36;;;;;;;8.50;2.33;;;3.80;99.90;;;;;;5038114;28;20378;-71
2022/02/25 03:06:03;;;;;;;5.78;1.95;;;3.80;99.90;;;;;;5045647;28;20236;-70
2022/02/25 03:08:30;;;;;;;6.35;1.90;;;3.80;99.90;;;;;;5035178;28;20192;-71
2022/02/25 03:10:58;;;;;;;7.32;2.20;;;3.90;99.90;;;;;;5040831;28;20432;-70
2022/02/25 03:13:25;;;;;;;3.55;1.83;;;3.90;99.90;;;;;;5020849;28;20209;-71
2022/02/25 03:15:54;;;;;;;8.77;2.40;;;4.00;99.90;;;;;;5038255;28;20239;-71
2022/02/25 03:18:20;;;;;;;5.38;1.90;;;4.00;99.90;;;;;;5028251;28;20247;-70
2022/02/25 03:20:47;;;;;;;4.00;1.95;;;4.10;99.90;;;;;;5034459;28;20278;-71
2022/02/25 03:23:14;;;;;;;3.60;1.70;;;4.10;99.90;;;;;;5032208;28;20253;-69
2022/02/25 03:25:41;;;;;;;7.57;2.00;;;4.20;99.90;;;;;;5037541;28;20451;-68
2022/02/25 03:28:08;;;;;;;6.25;2.00;;;4.40;99.90;;;;;;5038859;28;20187;-69
2022/02/25 03:30:35;;;;;;;8.20;2.17;;;4.30;99.90;;;;;;5040683;28;20192;-72
2022/02/25 03:33:07;;;;;;;4.38;2.00;;;4.30;99.90;;;;;;5024729;28;20289;-69
2022/02/25 03:35:35;;;;;;;4.70;2.00;;;4.40;99.90;;;;;;5026989;28;20209;-70
2022/02/25 03:38:03;;;;;;;10.02;2.47;;;4.40;99.90;;;;;;5027485;28;20200;-69
2022/02/25 03:40:30;;;;;;;10.00;3.28;;;4.40;99.90;;;;;;5040034;28;20363;-69
2022/02/25 03:42:57;;;;;;;5.53;2.30;;;4.40;99.90;;;;;;5042108;28;20240;-71
2022/02/25 03:45:24;;;;;;;5.10;2.40;;;4.40;99.90;;;;;;5038309;28;20224;-69
2022/02/25 03:47:51;;;;;;;5.97;2.05;;;4.40;99.90;;;;;;5039113;28;20193;-70
2022/02/25 03:50:19;;;;;;;11.38;3.47;;;4.50;99.90;;;;;;5030363;28;20275;-71
2022/02/25 03:52:46;;;;;;;3.15;1.80;;;4.50;99.90;;;;;;5028342;28;20209;-71
2022/02/25 03:55:13;;;;;;;3.35;2.10;;;4.50;99.90;;;;;;5037758;28;20230;-73
2022/02/25 03:57:40;;;;;;;6.38;3.45;;;4.50;99.90;;;;;;5036380;28;20261;-69
2022/02/25 04:00:09;;;;;;;5.55;2.45;;;4.50;99.90;;;;;;5036937;28;20212;-69
2022/02/25 04:02:36;;;;;;;12.05;3.65;;;4.50;99.90;;;;;;5037485;28;20212;-70
2022/02/25 04:05:03;;;;;;;6.97;1.92;;;4.50;99.90;;;;;;5038557;28;20258;-71
2022/02/25 04:07:31;;;;;;;10.98;2.65;;;4.50;99.90;;;;;;5038751;28;20316;-71
2022/02/25 04:09:58;;;;;;;10.25;2.25;;;4.60;99.90;;;;;;5044725;28;20246;-69
2022/02/25 04:12:25;;;;;;;6.97;1.80;;;4.50;99.90;;;;;;5037757;28;20224;-70
2022/02/25 04:14:52;;;;;;;14.95;2.50;;;4.50;99.90;;;;;;5043243;28;20200;-70
2022/02/25 04:17:19;;;;;;;8.40;2.10;;;4.50;99.90;;;;;;5037011;28;20239;-69
2022/02/25 04:19:46;;;;;;;7.72;1.70;;;4.40;99.90;;;;;;5037499;28;20208;-72
2022/02/25 04:22:13;;;;;;;6.68;2.50;;;4.40;99.90;;;;;;5030111;28;20389;-70
2022/02/25 04:24:42;;;;;;;11.63;2.35;;;4.30;99.90;;;;;;5032977;28;20268;-70
2022/02/25 04:27:09;;;;;;;4.05;2.25;;;4.30;99.90;;;;;;5038210;28;20189;-71
2022/02/25 04:29:36;;;;;;;4.30;2.40;;;4.30;99.90;;;;;;5035901;28;20189;-70
2022/02/25 04:32:03;;;;;;;13.02;2.45;;;4.20;99.90;;;;;;5044839;28;20243;-70
2022/02/25 04:34:30;;;;;;;4.47;2.97;;;4.20;99.90;;;;;;5029672;28;20213;-71
2022/02/25 04:36:57;;;;;;;6.45;2.20;;;4.20;99.90;;;;;;5038725;28;20192;-71
2022/02/25 04:39:24;;;;;;;8.30;3.10;;;4.20;99.90;;;;;;5037983;28;20223;-70
2022/02/25 04:41:52;;;;;;;5.47;1.92;;;4.20;99.90;;;;;;5038443;28;20335;-70
2022/02/25 04:44:19;;;;;;;5.05;2.35;;;4.20;99.90;;;;;;5035426;28;20226;-70
2022/02/25 04:46:46;;;;;;;11.82;2.95;;;4.20;99.90;;;;;;5044126;28;20262;-70
2022/02/25 04:49:13;;;;;;;5.78;2.30;;;4.20;99.90;;;;;;5030306;28;20334;-71
2022/02/25 04:51:40;;;;;;;12.75;3.03;;;4.30;99.90;;;;;;5035478;28;20204;-69
2022/02/25 04:54:08;;;;;;;7.18;2.90;;;4.30;99.90;;;;;;5041885;28;20207;-72
2022/02/25 04:56:35;;;;;;;7.65;2.70;;;4.20;99.90;;;;;;5036983;28;20285;-68
2022/02/25 04:59:03;;;;;;;4.32;2.35;;;4.20;99.90;;;;;;5033472;28;20229;-68
2022/02/25 05:01:30;;;;;;;3.38;2.28;;;4.20;99.90;;;;;;5041623;28;20212;-70
2022/02/25 05:03:57;;;;;;;9.07;2.47;;;4.20;99.90;;;;;;5038204;28;20308;-73
2022/02/25 05:06:24;;;;;;;8.38;2.35;;;4.20;99.90;;;;;;5036632;28;20244;-68
2022/02/25 05:08:53;;;;;;;8.38;2.65;;;4.10;99.90;;;;;;5041700;28;20223;-71
2022/02/25 05:11:20;;;;;;;4.38;2.53;;;4.10;99.90;;;;;;5036408;28;20256;-71
2022/02/25 05:13:47;;;;;;;8.30;2.90;;;4.10;99.90;;;;;;5040158;28;20238;-69
2022/02/25 05:21:47;;;;;;;5.20;2.22;;;4.10;99.90;;;;;;5013159;28;20482;-71
2022/02/25 05:24:13;;;;;;;8.40;2.83;;;4.10;99.90;;;;;;5035857;28;20218;-70
2022/02/25 05:26:40;;;;;;;7.00;2.67;;;4.10;99.90;;;;;;5033657;28;20554;-69
2022/02/25 05:29:07;;;;;;;5.78;2.65;;;4.10;99.90;;;;;;5041658;28;20220;-70
2022/02/25 05:31:36;;;;;;;7.55;3.17;;;4.10;99.90;;;;;;5025914;28;20240;-71
2022/02/25 05:34:03;;;;;;;5.25;3.60;;;4.10;99.90;;;;;;5028487;28;20259;-70
2022/02/25 05:36:30;;;;;;;5.78;3.15;;;4.10;99.90;;;;;;5039427;28;20406;-70
2022/02/25 05:38:57;;;;;;;8.50;2.35;;;4.10;99.90;;;;;;5038034;28;20231;-69
2022/02/25 05:41:24;;;;;;;15.77;2.75;;;4.10;99.90;;;;;;5036312;28;20330;-71
2022/02/25 05:43:51;;;;;;;6.78;2.22;;;4.00;99.90;;;;;;5037267;28;20220;-70
2022/02/25 05:46:18;;;;;;;16.67;2.75;;;4.00;99.90;;;;;;5040843;28;20278;-72
2022/02/25 05:48:46;;;;;;;10.65;3.20;;;4.00;99.90;;;;;;5032645;28;20339;-71
2022/02/25 05:51:14;;;;;;;7.45;2.92;;;4.00;99.90;;;;;;5039690;28;20209;-69
2022/02/25 05:53:41;;;;;;;10.27;2.70;;;4.00;99.90;;;;;;5040434;28;20223;-68
2022/02/25 05:56:08;;;;;;;10.45;2.97;;;4.00;99.90;;;;;;5043541;28;20211;-72
2022/02/25 05:58:36;;;;;;;11.77;3.25;;;3.90;99.90;;;;;;5044775;28;20209;-69
2022/02/25 06:01:03;;;;;;;10.63;2.38;;;3.90;99.90;;;;;;5032444;28;20243;-70
2022/02/25 06:03:33;;;;;;;4.75;2.25;;;3.90;99.90;;;;;;5045667;28;20262;-69
2022/02/25 06:06:01;;;;;;;7.75;2.25;;;3.90;99.90;;;;;;5041399;28;20210;-70
2022/02/25 06:08:28;;;;;;;10.65;2.47;;;3.90;99.90;;;;;;5039753;28;20267;-69
2022/02/25 06:10:56;;;;;;;6.28;3.65;;;4.00;99.90;;;;;;5038444;28;20251;-70
2022/02/25 06:13:23;;;;;;;6.15;3.85;;;4.00;99.90;;;;;;5040552;28;20448;-70
2022/02/25 06:15:50;;;;;;;9.25;3.45;;;4.00;99.90;;;;;;5038541;28;20247;-70
2022/02/25 06:18:17;;;;;;;11.00;2.85;;;4.00;99.90;;;;;;5034222;28;20216;-71
2022/02/25 06:20:44;;;;;;;14.88;4.03;;;4.00;99.90;;;;;;5037025;28;20202;-69
2022/02/25 06:23:12;;;;;;;18.02;4.88;;;4.00;99.90;;;;;;5040321;28;20228;-72
2022/02/25 06:25:40;;;;;;;6.53;3.05;;;4.00;99.90;;;;;;5040423;28;20246;-71
2022/02/25 06:28:08;;;;;;;6.95;3.22;;;4.10;99.90;;;;;;5037615;28;20363;-71
2022/02/25 06:30:35;;;;;;;14.32;2.95;;;4.10;99.90;;;;;;5040048;28;20235;-69
2022/02/25 06:33:02;;;;;;;5.18;3.15;;;4.20;99.90;;;;;;5039976;28;20261;-72
2022/02/25 06:35:29;;;;;;;11.85;3.28;;;4.20;99.90;;;;;;5038409;28;20247;-69
2022/02/25 06:37:56;;;;;;;6.35;2.90;;;4.20;99.90;;;;;;5040738;28;20224;-69
2022/02/25 06:40:25;;;;;;;8.43;3.97;;;4.20;99.90;;;;;;5040441;28;20284;-70
2022/02/25 06:42:52;;;;;;;9.00;4.05;;;4.20;99.90;;;;;;5028534;28;20240;-69
2022/02/25 06:45:20;;;;;;;10.98;3.90;;;4.20;99.90;;;;;;5041086;28;20270;-71
2022/02/25 06:47:48;;;;;;;9.90;4.00;;;4.20;99.90;;;;;;5044083;28;20192;-71
2022/02/25 06:50:17;;;;;;;6.35;3.60;;;4.30;99.90;;;;;;5037977;28;20222;-69
2022/02/25 06:52:45;;;;;;;11.82;3.80;;;4.30;99.90;;;;;;5038519;28;20240;-68
2022/02/25 06:55:14;;;;;;;7.30;3.60;;;4.40;99.90;;;;;;5036420;28;20190;-68
2022/02/25 06:57:43;;;;;;;12.25;4.20;;;4.40;99.90;;;;;;5028161;28;20256;-68
2022/02/25 07:00:13;;;;;;;10.93;4.10;;;4.40;99.90;;;;;;5031464;28;20271;-68
2022/02/25 07:02:40;;;;;;;14.45;4.85;;;4.50;99.90;;;;;;5040344;28;20266;-70
2022/02/25 07:05:08;;;;;;;6.93;4.60;;;4.50;99.90;;;;;;5038211;28;20207;-71
2022/02/25 07:07:35;;;;;;;10.52;5.18;;;4.50;99.90;;;;;;5042220;28;20415;-69
2022/02/25 07:10:03;;;;;;;6.38;3.95;;;4.60;99.90;;;;;;5031605;28;20193;-68
2022/02/25 07:12:30;;;;;;;7.32;4.15;;;4.60;99.90;;;;;;5034269;28;20224;-69
2022/02/25 07:14:59;;;;;;;9.40;5.75;;;4.60;99.90;;;;;;5041295;28;20208;-69
2022/02/25 07:17:26;;;;;;;7.50;3.72;;;4.60;99.90;;;;;;5035988;28;20199;-68
2022/02/25 07:19:53;;;;;;;9.48;5.05;;;4.80;99.90;;;;;;5027683;28;20280;-67
2022/02/25 07:22:20;;;;;;;13.25;6.00;;;4.90;99.90;;;;;;5031656;28;20219;-69
2022/02/25 07:24:47;;;;;;;7.57;5.13;;;5.10;99.90;;;;;;5030123;28;20192;-69
2022/02/25 07:27:13;;;;;;;15.23;6.22;;;5.10;99.90;;;;;;5043269;28;20227;-70
2022/02/25 07:29:40;;;;;;;7.00;4.47;;;5.10;99.90;;;;;;5026073;28;20405;-69
2022/02/25 07:32:10;;;;;;;17.88;4.72;;;5.30;99.90;;;;;;5030765;28;20236;-68
2022/02/25 07:34:39;;;;;;;11.88;5.35;;;5.30;99.90;;;;;;5026642;28;20251;-72
2022/02/25 07:37:06;;;;;;;9.75;5.03;;;5.30;99.90;;;;;;5026163;28;20255;-70
2022/02/25 07:39:33;;;;;;;9.10;5.57;;;5.20;99.90;;;;;;5035202;28;20203;-69
2022/02/25 07:42:00;;;;;;;17.08;5.30;;;5.00;99.90;;;;;;5039172;28;20222;-70
2022/02/25 07:44:27;;;;;;;9.75;4.88;;;5.00;99.90;;;;;;5036992;28;20259;-71
2022/02/25 07:46:54;;;;;;;6.35;4.65;;;5.10;99.90;;;;;;5041845;28;20220;-70
2022/02/25 07:49:22;;;;;;;9.27;5.07;;;5.10;99.90;;;;;;5025679;28;20396;-70
2022/02/25 07:51:51;;;;;;;15.82;4.78;;;5.10;99.90;;;;;;5027659;28;20185;-71
2022/02/25 07:54:19;;;;;;;12.27;5.07;;;5.10;99.90;;;;;;5039780;28;20200;-71
2022/02/25 07:56:46;;;;;;;12.20;5.32;;;5.10;99.90;;;;;;5029284;28;20456;-68
2022/02/25 07:59:13;;;;;;;12.40;5.65;;;5.00;99.90;;;;;;5031555;28;20359;-71
2022/02/25 08:01:40;;;;;;;13.75;4.60;;;5.00;99.90;;;;;;5038785;28;20205;-69
2022/02/25 08:04:08;;;;;;;11.05;4.90;;;5.00;99.90;;;;;;5032438;28;20184;-70
2022/02/25 08:06:37;;;;;;;13.52;4.78;;;5.00;99.90;;;;;;5037026;28;20212;-69
2022/02/25 08:09:05;;;;;;;12.32;6.50;;;5.10;99.90;;;;;;5030946;28;20224;-69
2022/02/25 08:11:32;;;;;;;23.77;6.20;;;5.10;99.90;;;;;;5032330;28;20197;-71
2022/02/25 08:13:59;;;;;;;7.80;4.60;;;5.10;99.90;;;;;;5039833;28;20271;-70
2022/02/25 08:16:26;;;;;;;18.65;7.15;;;5.10;99.90;;;;;;5034724;28;20188;-71
2022/02/25 08:18:53;;;;;;;13.07;6.10;;;5.10;99.90;;;;;;5034791;28;20204;-70
2022/02/25 08:21:20;;;;;;;13.52;5.97;;;5.20;99.90;;;;;;5030221;28;20184;-68
2022/02/25 08:23:48;;;;;;;14.55;7.40;;;5.10;99.90;;;;;;5028917;28;20229;-69
2022/02/25 08:26:15;;;;;;;18.60;7.45;;;5.00;99.90;;;;;;5033639;28;20227;-70
2022/02/25 08:28:42;;;;;;;12.07;7.75;;;5.10;99.90;;;;;;5035911;28;20231;-68
2022/02/25 08:31:11;;;;;;;19.52;7.30;;;5.00;99.90;;;;;;5040789;28;20207;-70
2022/02/25 08:33:39;;;;;;;9.85;4.95;;;5.00;99.90;;;;;;5033419;28;20211;-69
2022/02/25 08:36:06;;;;;;;10.23;5.68;;;4.90;99.90;;;;;;5039632;28;20592;-70
2022/02/25 08:38:33;;;;;;;18.50;6.60;;;4.90;99.90;;;;;;5040067;28;20380;-70
2022/02/25 08:41:03;;;;;;;10.55;9.45;;;4.90;99.90;;;;;;5036573;28;20189;-74
2022/02/25 08:43:30;;;;;;;9.95;5.10;;;4.90;99.90;;;;;;5035179;28;20225;-73
2022/02/25 08:45:58;;;;;;;9.00;5.80;;;4.80;99.90;;;;;;5032808;28;20236;-73
2022/02/25 08:48:26;;;;;;;20.08;8.25;;;4.80;99.90;;;;;;5026119;28;20193;-71
2022/02/25 08:50:54;;;;;;;11.18;7.30;;;4.80;99.90;;;;;;5032874;28;20212;-73
2022/02/25 08:53:21;;;;;;;15.75;7.65;;;4.80;99.90;;;;;;5031694;28;20212;-73
2022/02/25 08:55:50;;;;;;;14.50;6.55;;;4.80;99.90;;;;;;5034411;28;20316;-70
2022/02/25 08:58:20;;;;;;;18.35;7.97;;;4.80;99.90;;;;;;5026068;28;20239;-73
2022/02/25 09:00:47;;;;;;;18.60;6.45;;;4.80;99.90;;;;;;5035675;28;20240;-74
2022/02/25 09:03:15;;;;;;;7.65;6.28;;;4.90;99.90;;;;;;5034534;28;20236;-70
2022/02/25 09:05:42;;;;;;;15.73;8.70;;;5.00;99.90;;;;;;5034929;28;20193;-73
2022/02/25 09:08:09;;;;;;;14.57;7.30;;;4.90;99.90;;;;;;5041352;28;20203;-70
2022/02/25 09:10:37;;;;;;;10.60;5.53;;;4.90;99.90;;;;;;5033507;28;20243;-74
2022/02/25 09:13:04;;;;;;;13.25;7.80;;;4.90;99.90;;;;;;5041300;28;20220;-73
2022/02/25 09:15:34;;;;;;;8.20;6.53;;;4.80;99.90;;;;;;5035037;28;20212;-71
2022/02/25 09:18:01;;;;;;;15.07;6.35;;;4.90;99.90;;;;;;5035451;28;20188;-71
2022/02/25 09:20:29;;;;;;;11.40;5.68;;;5.00;99.90;;;;;;5025745;28;20297;-74
2022/02/25 09:22:57;;;;;;;14.98;7.38;;;5.10;99.90;;;;;;5033375;28;20268;-71
2022/02/25 09:25:25;;;;;;;17.85;6.03;;;5.20;99.90;;;;;;5041217;28;20242;-72
2022/02/25 09:27:52;;;;;;;11.88;5.45;;;5.30;99.90;;;;;;5031445;28;20290;-69
2022/02/25 09:30:19;;;;;;;17.33;5.95;;;5.30;99.90;;;;;;5037358;28;20184;-72
2022/02/25 09:32:47;;;;;;;15.32;6.85;;;5.40;99.90;;;;;;5042245;28;20237;-73
2022/02/25 09:35:14;;;;;;;16.83;5.47;;;5.30;99.90;;;;;;5036443;28;20303;-71
2022/02/25 09:37:41;;;;;;;10.55;5.45;;;5.40;99.90;;;;;;5029647;28;20201;-70
2022/02/25 09:40:11;;;;;;;10.25;5.68;;;5.40;99.90;;;;;;5039980;28;20192;-70
2022/02/25 09:42:39;;;;;;;9.25;6.85;;;5.60;99.90;;;;;;5038283;28;20213;-71
2022/02/25 09:45:08;;;;;;;12.20;6.10;;;5.70;99.90;;;;;;5024868;28;20390;-70
2022/02/25 09:47:36;;;;;;;9.10;6.07;;;5.70;99.90;;;;;;5041865;28;20431;-72
2022/02/25 09:50:05;;;;;;;11.98;5.43;;;5.80;99.90;;;;;;5034709;28;20251;-68
2022/02/25 09:52:33;;;;;;;10.32;5.05;;;5.90;99.90;;;;;;5035651;28;20213;-70
2022/02/25 09:55:00;;;;;;;15.85;5.43;;;6.00;99.90;;;;;;5037481;28;20250;-72
2022/02/25 09:57:27;;;;;;;8.35;4.40;;;6.20;99.90;;;;;;5037516;28;20193;-71
2022/02/25 09:59:54;;;;;;;11.30;4.40;;;7.10;99.90;;;;;;5037396;28;20212;-70
2022/02/25 10:02:38;;;;;;;11.73;5.80;;;7.70;99.90;;;;;;5043186;28;20222;-70
2022/02/25 10:05:11;;;;;;;12.55;5.32;;;7.30;99.90;;;;;;5045293;28;20254;-70
2022/02/25 10:07:39;;;;;;;11.68;5.05;;;7.30;99.90;;;;;;5041580;28;20236;-71
2022/02/25 10:10:08;;;;;;;12.85;5.63;;;7.10;99.90;;;;;;5039832;28;20390;-70
2022/02/25 10:12:35;;;;;;;11.80;4.97;;;7.00;99.90;;;;;;5038115;28;20334;-72
2022/02/25 10:15:02;;;;;;;22.13;4.88;;;6.70;99.90;;;;;;5032281;28;20258;-73
2022/02/25 10:17:30;;;;;;;13.05;5.47;;;6.60;99.90;;;;;;5043618;28;20356;-70
2022/02/25 10:19:59;;;;;;;13.35;4.95;;;6.70;99.90;;;;;;5039707;28;20192;-71
2022/02/25 10:22:30;;;;;;;14.63;5.28;;;6.60;99.90;;;;;;5037127;28;20245;-71
2022/02/25 10:25:01;;;;;;;17.40;4.93;;;6.50;99.90;;;;;;5042907;28;20231;-72
2022/02/25 10:27:30;;;;;;;8.18;3.33;;;6.60;99.90;;;;;;5034145;28;20273;-71
2022/02/25 10:30:01;;;;;;;14.52;5.07;;;6.70;99.90;;;;;;5041101;28;20367;-72
2022/02/25 10:32:31;;;;;;;7.50;3.97;;;6.90;99.90;;;;;;5042515;28;20216;-71
2022/02/25 10:34:58;;;;;;;9.85;4.10;;;7.00;99.90;;;;;;5038970;28;20200;-71
2022/02/25 10:37:25;;;;;;;16.92;5.75;;;7.00;99.90;;;;;;5038552;28;20199;-71
2022/02/25 10:39:54;;;;;;;14.75;5.13;;;6.90;99.90;;;;;;5038899;28;20266;-72
2022/02/25 10:42:24;;;;;;;7.68;4.20;;;6.90;99.90;;;;;;5037756;28;20212;-70
2022/02/25 10:44:55;;;;;;;11.45;3.85;;;7.30;99.90;;;;;;5032376;28;20209;-70
2022/02/25 10:47:26;;;;;;;14.82;4.80;;;7.60;99.90;;;;;;5041370;28;20226;-72
2022/02/25 10:50:01;;;;;;;11.20;3.60;;;7.80;99.90;;;;;;5044535;28;20273;-68
2022/02/25 10:52:31;;;;;;;10.13;4.10;;;7.80;99.90;;;;;;5035028;28;20210;-72
2022/02/25 10:55:03;;;;;;;14.25;4.30;;;7.80;99.90;;;;;;5029346;28;20184;-70
2022/02/25 10:57:34;;;;;;;12.30;4.60;;;7.60;99.90;;;;;;5027371;28;20215;-71
2022/02/25 11:00:02;;;;;;;10.40;4.25;;;7.30;99.90;;;;;;5009012;28;20213;-71
2022/02/25 11:02:34;;;;;;;17.52;3.90;;;6.90;99.90;;;;;;5009364;28;20216;-70
2022/02/25 11:05:05;;;;;;;14.85;4.60;;;6.80;99.90;;;;;;5009211;28;20268;-70
2022/02/25 11:07:32;;;;;;;6.70;2.90;;;6.70;99.90;;;;;;5009217;28;20327;-69
2022/02/25 11:10:00;;;;;;;5.75;3.17;;;6.70;99.90;;;;;;5008721;28;20189;-71
2022/02/25 11:12:29;;;;;;;9.88;3.92;;;6.40;99.90;;;;;;5009251;28;20242;-71
2022/02/25 11:14:57;;;;;;;6.18;2.83;;;6.30;99.90;;;;;;5008754;28;20403;-70
2022/02/25 11:17:24;;;;;;;6.43;3.05;;;6.10;99.90;;;;;;5009369;28;20210;-69
2022/02/25 11:19:55;;;;;;;3.95;2.50;;;6.00;99.90;;;;;;5007740;28;20178;-71
2022/02/25 11:22:22;;;;;;;5.95;2.03;;;5.90;99.90;;;;;;5023844;28;20269;-70
2022/02/25 11:24:51;;;;;;;6.03;1.95;;;5.80;99.90;;;;;;5040895;28;20396;-68
2022/02/25 11:27:20;;;;;;;4.20;1.98;;;5.80;99.90;;;;;;5019592;28;20217;-73
2022/02/25 11:29:57;;;;;;;5.30;3.33;;;5.80;99.90;;;;;;5027411;28;20179;-69
2022/02/25 11:32:33;;;;;;;4.32;2.38;;;5.90;99.90;;;;;;5027335;28;20215;-69
2022/02/25 11:35:00;;;;;;;5.32;1.42;;;6.10;99.90;;;;;;5027705;28;20272;-71
2022/02/25 11:37:47;;;;;;;7.18;1.75;;;6.10;99.90;;;;;;5027606;28;20383;-71
2022/02/25 11:40:48;;;;;;;7.75;2.50;;;6.00;99.90;;;;;;5026693;28;20194;-68
2022/02/25 11:43:17;;;;;;;13.48;2.13;;;6.00;99.90;;;;;;5007458;28;20501;-73
2022/02/25 11:45:50;;;;;;;6.10;1.30;;;6.10;99.90;;;;;;5006687;28;20230;-71
2022/02/25 11:48:24;;;;;;;5.20;1.42;;;6.30;99.90;;;;;;5007579;28;20439;-72
2022/02/25 11:50:54;;;;;;;3.65;1.50;;;6.40;99.90;;;;;;5007321;28;20178;-70
2022/02/25 11:53:22;;;;;;;3.10;1.60;;;6.60;99.90;;;;;;5018983;28;20593;-70
2022/02/25 11:55:51;;;;;;;5.88;1.85;;;6.90;99.90;;;;;;5029540;28;20433;-73
2022/02/25 11:58:42;;;;;;;4.13;1.73;;;6.90;99.90;;;;;;5027847;28;20183;-69
2022/02/25 12:01:11;;;;;;;8.38;1.90;;;7.00;99.90;;;;;;5026615;28;20413;-71
2022/02/25 12:04:06;;;;;;;7.47;2.65;;;7.00;99.90;;;;;;5027082;28;20246;-72
2022/02/25 12:07:00;;;;;;;7.68;3.85;;;7.00;99.90;;;;;;5027426;28;20285;-69
2022/02/25 12:09:45;;;;;;;5.68;2.25;;;7.00;99.90;;;;;;5024063;28;20199;-71
2022/02/25 12:12:38;;;;;;;8.68;2.17;;;7.10;99.90;;;;;;5027125;28;20282;-71
2022/02/25 12:15:10;;;;;;;6.72;2.10;;;7.30;99.90;;;;;;5026844;28;20191;-72
2022/02/25 12:17:43;;;;;;;11.32;2.60;;;7.50;99.90;;;;;;5027394;28;20177;-71
2022/02/25 12:20:12;;;;;;;11.40;2.08;;;7.70;99.90;;;;;;5026659;28;20198;-70
2022/02/25 12:22:50;;;;;;;5.93;1.60;;;7.80;99.90;;;;;;5022917;28;20236;-69
2022/02/25 12:25:55;;;;;;;11.00;2.10;;;7.90;99.90;;;;;;5032572;28;20239;-71
2022/02/25 12:28:50;;;;;;;6.05;4.03;;;8.20;99.90;;;;;;5028914;28;20235;-68
2022/02/25 12:31:20;;;;;;;4.00;1.65;;;8.30;99.90;;;;;;5030246;28;20203;-69
2022/02/25 12:34:01;;;;;;;4.03;1.10;;;8.50;99.90;;;;;;5027782;28;20379;-72
2022/02/25 12:36:46;;;;;;;2.53;1.65;;;8.60;99.90;;;;;;5038565;28;20361;-71
2022/02/25 12:39:34;;;;;;;8.07;1.92;;;8.80;99.90;;;;;;5033752;28;20192;-70
2022/02/25 12:42:08;;;;;;;7.40;2.67;;;8.80;99.90;;;;;;5039447;28;20209;-68
2022/02/25 12:44:37;;;;;;;10.13;1.98;;;8.90;99.90;;;;;;5038697;28;20230;-71
2022/02/25 12:47:08;;;;;;;7.80;3.10;;;8.80;99.90;;;;;;5037860;28;20240;-71
2022/02/25 12:49:37;;;;;;;6.38;2.03;;;8.70;99.90;;;;;;5039564;28;20280;-69
2022/02/25 12:52:06;;;;;;;18.30;3.15;;;8.70;99.90;;;;;;5033391;28;20208;-71
2022/02/25 12:54:35;;;;;;;8.85;2.47;;;8.60;99.90;;;;;;5030411;28;20192;-70
2022/02/25 12:57:07;;;;;;;9.32;2.50;;;8.70;99.90;;;;;;5038425;28;20197;-69
2022/02/25 12:59:36;;;;;;;7.95;3.25;;;8.50;99.90;;;;;;5038974;28;20326;-70
2022/02/25 13:02:07;;;;;;;8.52;1.65;;;8.30;99.90;;;;;;5039713;28;20339;-67
2022/02/25 13:04:42;;;;;;;10.18;2.28;;;8.20;99.90;;;;;;5042038;28;20401;-68
2022/02/25 13:07:10;;;;;;;12.95;2.20;;;8.00;99.90;;;;;;5034350;28;20238;-71